Time;durP1;ratioP1;P1;durP2;ratioP2;P2;SDS_P1;SDS_P2;PMS_P1;PMS_P2;Temp;Humidity;BMP_temperature;BMP_pressure;BME280_temperature;BME280_humidity;BME280_pressure;Samples;Min_cycle;Max_cycle;Signal;HPM_P1;HPM_P2
2022/01/01 00:00:22;;;;;;;5.00;2.63;;;14.40;99.90;;;;;;5058750;28;20029;-87
2022/01/01 00:02:54;;;;;;;4.07;2.60;;;14.40;99.90;;;;;;5055101;28;20021;-88
2022/01/01 00:05:20;;;;;;;4.43;2.45;;;14.40;99.90;;;;;;5056780;28;20016;-89
2022/01/01 00:07:49;;;;;;;4.75;2.42;;;14.40;99.90;;;;;;5043600;28;20101;-88
2022/01/01 00:10:20;;;;;;;4.82;2.80;;;14.40;99.90;;;;;;5057052;28;20025;-88
2022/01/01 00:12:47;;;;;;;6.18;2.88;;;14.40;99.90;;;;;;5042208;28;20041;-88
2022/01/01 00:15:15;;;;;;;6.22;2.50;;;14.40;99.90;;;;;;5056615;28;20021;-89
2022/01/01 00:17:41;;;;;;;6.40;3.50;;;14.40;99.90;;;;;;5032973;28;20037;-88
2022/01/01 00:20:16;;;;;;;5.28;3.25;;;14.40;99.90;;;;;;5050031;28;20021;-88
2022/01/01 00:22:46;;;;;;;4.93;2.75;;;14.40;99.90;;;;;;5047384;28;20028;-88
2022/01/01 00:25:13;;;;;;;6.78;3.78;;;14.30;99.90;;;;;;5032070;28;20027;-89
2022/01/01 00:27:39;;;;;;;7.80;4.60;;;14.30;99.90;;;;;;5060820;28;20032;-90
2022/01/01 00:30:09;;;;;;;4.80;3.47;;;14.30;99.90;;;;;;5031436;28;20028;-87
2022/01/01 00:32:39;;;;;;;5.30;3.55;;;14.30;99.90;;;;;;5030447;28;20029;-89
2022/01/01 00:35:06;;;;;;;7.07;3.72;;;14.30;99.90;;;;;;5047297;28;20035;-87
2022/01/01 00:37:32;;;;;;;3.90;2.72;;;14.30;99.90;;;;;;5046522;28;20027;-88
2022/01/01 00:39:58;;;;;;;3.90;3.00;;;14.20;99.90;;;;;;5046403;28;20033;-88
2022/01/01 00:42:30;;;;;;;4.32;3.10;;;14.20;99.90;;;;;;5053431;28;20053;-88
2022/01/01 00:44:56;;;;;;;5.03;2.92;;;14.20;99.90;;;;;;5029573;28;20508;-87
2022/01/01 00:47:22;;;;;;;3.65;2.83;;;14.10;99.90;;;;;;5043706;28;20032;-88
2022/01/01 00:49:52;;;;;;;7.85;3.00;;;14.00;99.90;;;;;;5046290;28;20025;-88
2022/01/01 00:52:26;;;;;;;5.15;3.13;;;14.00;99.90;;;;;;5031547;28;20040;-87
2022/01/01 00:54:59;;;;;;;4.97;3.10;;;13.90;99.90;;;;;;5033069;28;20107;-85
2022/01/01 00:57:25;;;;;;;4.93;3.10;;;13.90;99.90;;;;;;5059380;28;20029;-86
2022/01/01 00:59:52;;;;;;;4.32;3.10;;;13.80;99.90;;;;;;5078286;28;20083;-85
2022/01/01 01:02:18;;;;;;;5.05;3.22;;;13.70;99.90;;;;;;5045195;28;20017;-86
2022/01/01 01:04:46;;;;;;;6.90;3.60;;;13.70;99.90;;;;;;5061237;28;20048;-84
2022/01/01 01:07:12;;;;;;;4.28;3.03;;;13.80;99.90;;;;;;5078492;28;20096;-84
2022/01/01 01:09:39;;;;;;;8.50;3.42;;;13.70;99.90;;;;;;5060845;28;20025;-84
2022/01/01 01:12:05;;;;;;;6.32;3.50;;;13.80;99.90;;;;;;5057409;28;20041;-86
2022/01/01 01:14:40;;;;;;;6.13;3.53;;;13.70;99.90;;;;;;5037203;28;20025;-87
2022/01/01 01:17:10;;;;;;;7.10;3.70;;;13.70;99.90;;;;;;5049963;28;20033;-89
2022/01/01 01:19:36;;;;;;;5.55;3.22;;;13.70;99.90;;;;;;5031893;28;20021;-87
2022/01/01 01:22:02;;;;;;;5.57;3.45;;;13.70;99.90;;;;;;5049053;28;20391;-88
2022/01/01 01:24:28;;;;;;;5.95;3.20;;;13.70;99.90;;;;;;5050713;28;20017;-87
2022/01/01 01:26:59;;;;;;;6.60;3.78;;;13.70;99.90;;;;;;5035710;28;20063;-87
2022/01/01 01:29:37;;;;;;;8.55;4.00;;;13.70;99.90;;;;;;5032220;28;20064;-85
2022/01/01 01:32:09;;;;;;;5.78;3.38;;;13.60;99.90;;;;;;5036301;28;20021;-86
2022/01/01 01:34:35;;;;;;;8.75;4.13;;;13.60;99.90;;;;;;5042458;28;20029;-87
2022/01/01 01:37:04;;;;;;;6.53;3.75;;;13.60;99.90;;;;;;5042807;28;20032;-86
2022/01/01 01:39:30;;;;;;;5.85;3.70;;;13.60;99.90;;;;;;5059856;28;20033;-85
2022/01/01 01:41:57;;;;;;;7.43;4.30;;;13.50;99.90;;;;;;5040329;28;20171;-87
2022/01/01 01:44:36;;;;;;;6.53;4.03;;;13.50;99.90;;;;;;5043005;28;20040;-86
2022/01/01 01:47:15;;;;;;;8.20;4.63;;;13.50;99.90;;;;;;5076548;28;20033;-86
2022/01/01 01:49:48;;;;;;;8.25;4.65;;;13.40;99.90;;;;;;5059394;28;20037;-86
2022/01/01 01:52:20;;;;;;;9.57;4.72;;;13.50;99.90;;;;;;5042693;28;20021;-88
2022/01/01 01:54:47;;;;;;;5.80;4.13;;;13.40;99.90;;;;;;5058435;28;20068;-87
2022/01/01 01:57:14;;;;;;;9.20;4.70;;;13.40;99.90;;;;;;5041049;28;20032;-87
2022/01/01 01:59:43;;;;;;;7.65;4.38;;;13.40;99.90;;;;;;5039873;28;20219;-89
2022/01/01 02:02:09;;;;;;;8.68;4.95;;;13.40;99.90;;;;;;5057142;28;20072;-86
2022/01/01 02:04:35;;;;;;;7.78;4.78;;;13.40;99.90;;;;;;5038763;28;20043;-88
2022/01/01 02:07:04;;;;;;;9.82;4.75;;;13.40;99.90;;;;;;5070831;28;20056;-88
2022/01/01 02:09:32;;;;;;;7.93;4.82;;;13.40;99.90;;;;;;5035952;28;20055;-88
2022/01/01 02:11:59;;;;;;;8.05;5.00;;;13.40;99.90;;;;;;5054279;28;20032;-89
2022/01/01 02:14:37;;;;;;;13.02;5.53;;;13.40;99.90;;;;;;5054572;28;20029;-88
2022/01/01 02:19:30;;;;;;;10.48;5.35;;;13.40;99.90;;;;;;5057779;28;20009;-90
2022/01/01 02:22:06;;;;;;;9.38;5.40;;;13.40;99.90;;;;;;5058045;28;20013;-88
2022/01/01 02:24:35;;;;;;;9.93;4.70;;;13.40;99.90;;;;;;5074994;28;20029;-88
2022/01/01 02:27:04;;;;;;;9.20;5.40;;;13.40;99.90;;;;;;5037325;28;20035;-88
2022/01/01 02:29:31;;;;;;;8.68;5.10;;;13.40;99.90;;;;;;5037763;28;20033;-89
2022/01/01 02:32:00;;;;;;;9.73;5.07;;;13.40;99.90;;;;;;5039299;28;20025;-88
2022/01/01 02:34:34;;;;;;;8.98;5.20;;;13.40;99.90;;;;;;5055807;28;20043;-86
2022/01/01 02:37:01;;;;;;;11.80;5.28;;;13.40;99.90;;;;;;5037980;28;20056;-86
2022/01/01 02:39:27;;;;;;;9.40;5.38;;;13.40;99.90;;;;;;5054846;28;20033;-87
2022/01/01 02:42:02;;;;;;;10.00;5.05;;;13.40;99.90;;;;;;5054382;28;20088;-87
2022/01/01 02:44:34;;;;;;;9.45;5.97;;;13.40;99.90;;;;;;5051542;28;20033;-88
2022/01/01 02:47:00;;;;;;;7.57;5.28;;;13.40;99.90;;;;;;5055283;22;20159;-85
2022/01/01 02:49:26;;;;;;;8.98;5.20;;;13.40;99.90;;;;;;5020487;28;20053;-84
2022/01/01 02:51:52;;;;;;;12.98;6.28;;;13.40;99.90;;;;;;5014936;28;20041;-85
2022/01/01 02:54:18;;;;;;;9.13;5.32;;;13.40;99.90;;;;;;5017581;28;20025;-85
2022/01/01 02:56:44;;;;;;;11.18;6.47;;;13.30;99.90;;;;;;5017199;28;20030;-85
2022/01/01 02:59:10;;;;;;;11.60;5.75;;;13.30;99.90;;;;;;5015948;28;20022;-85
2022/01/01 03:01:36;;;;;;;10.50;5.97;;;13.20;99.90;;;;;;5019072;28;20037;-86
2022/01/01 03:04:01;;;;;;;9.70;6.07;;;13.20;99.90;;;;;;5023937;28;20026;-84
2022/01/01 03:06:28;;;;;;;9.85;5.93;;;13.20;99.90;;;;;;5026617;28;20036;-84
2022/01/01 03:08:56;;;;;;;10.32;6.07;;;13.30;99.90;;;;;;5026720;28;20037;-85
2022/01/01 03:11:23;;;;;;;13.05;5.47;;;13.30;99.90;;;;;;5017444;28;20026;-84
2022/01/01 03:13:49;;;;;;;11.68;6.00;;;13.30;99.90;;;;;;5019237;28;20025;-87
2022/01/01 03:16:15;;;;;;;10.93;6.15;;;13.30;99.90;;;;;;5019786;28;20038;-85
2022/01/01 03:18:41;;;;;;;10.40;6.00;;;13.30;99.90;;;;;;5019884;28;20033;-84
2022/01/01 03:21:07;;;;;;;10.48;5.20;;;13.30;99.90;;;;;;5022144;28;20109;-85
2022/01/01 03:23:33;;;;;;;8.23;5.25;;;13.30;99.90;;;;;;5033806;28;20030;-85
2022/01/01 03:25:59;;;;;;;10.70;6.03;;;13.30;99.90;;;;;;5040291;28;20050;-80
2022/01/01 03:28:25;;;;;;;9.93;5.30;;;13.30;99.90;;;;;;5031181;28;20034;-84
2022/01/01 03:30:52;;;;;;;9.63;5.50;;;13.30;99.90;;;;;;5030627;28;20018;-80
2022/01/01 03:33:17;;;;;;;11.75;5.63;;;13.30;99.90;;;;;;5040329;28;20077;-79
2022/01/01 03:35:43;;;;;;;12.07;5.80;;;13.30;99.90;;;;;;5025769;28;20030;-83
2022/01/01 03:38:09;;;;;;;11.13;5.63;;;13.30;99.90;;;;;;5023121;28;20032;-85
2022/01/01 03:40:35;;;;;;;12.18;5.60;;;13.30;99.90;;;;;;5025895;28;20053;-85
2022/01/01 03:43:01;;;;;;;9.25;4.85;;;13.30;99.90;;;;;;5026365;28;20026;-84
2022/01/01 03:45:26;;;;;;;8.30;5.05;;;13.30;99.90;;;;;;5026712;28;20014;-81
2022/01/01 03:47:52;;;;;;;10.75;5.35;;;13.20;99.90;;;;;;5038395;28;20041;-82
2022/01/01 03:50:18;;;;;;;8.88;5.45;;;13.30;99.90;;;;;;5036798;28;20086;-82
2022/01/01 03:52:45;;;;;;;9.82;4.85;;;13.20;99.90;;;;;;5034227;28;20108;-85
2022/01/01 03:55:14;;;;;;;11.52;5.30;;;13.20;99.90;;;;;;5036438;28;20046;-81
2022/01/01 03:57:40;;;;;;;10.70;5.03;;;13.20;99.90;;;;;;5038957;28;20085;-81
2022/01/01 04:00:11;;;;;;;10.30;5.15;;;13.20;99.90;;;;;;5034457;28;20034;-84
2022/01/01 04:02:39;;;;;;;7.90;4.95;;;13.10;99.90;;;;;;5032120;28;20030;-81
2022/01/01 04:05:05;;;;;;;9.23;5.47;;;13.00;99.90;;;;;;5033133;28;20041;-82
2022/01/01 04:07:32;;;;;;;9.98;5.72;;;12.90;99.90;;;;;;5035541;28;20044;-85
2022/01/01 04:09:58;;;;;;;9.95;5.57;;;12.80;99.90;;;;;;5035819;28;20037;-84
2022/01/01 04:12:25;;;;;;;11.10;5.70;;;12.70;99.90;;;;;;5035613;28;20030;-82
2022/01/01 04:14:51;;;;;;;12.00;5.15;;;12.60;99.90;;;;;;5037532;28;20026;-80
2022/01/01 04:17:18;;;;;;;9.13;5.13;;;12.50;99.90;;;;;;5038337;28;20022;-82
2022/01/01 04:19:44;;;;;;;12.65;5.78;;;12.50;99.90;;;;;;5036822;28;20029;-81
2022/01/01 04:22:13;;;;;;;9.57;5.38;;;12.40;99.90;;;;;;5038313;28;20053;-82
2022/01/01 04:24:40;;;;;;;11.02;5.47;;;12.30;99.90;;;;;;5038152;28;20038;-80
2022/01/01 04:27:07;;;;;;;10.15;5.47;;;12.30;99.90;;;;;;5038559;28;20035;-82
2022/01/01 04:29:33;;;;;;;10.50;5.47;;;12.30;99.90;;;;;;5038661;28;20038;-83
2022/01/01 04:32:00;;;;;;;9.63;4.70;;;12.20;99.90;;;;;;5037650;28;20034;-81
2022/01/01 04:34:26;;;;;;;9.55;5.32;;;12.20;99.90;;;;;;5037816;28;20069;-81
2022/01/01 04:37:06;;;;;;;9.50;4.70;;;12.20;99.90;;;;;;5034266;28;20034;-84
2022/01/01 04:39:32;;;;;;;8.13;4.82;;;12.30;99.90;;;;;;5029615;28;20033;-83
2022/01/01 04:41:57;;;;;;;9.88;5.28;;;12.20;99.90;;;;;;5029541;28;20409;-84
2022/01/01 04:44:24;;;;;;;7.68;4.68;;;12.20;99.90;;;;;;5028661;28;20097;-84
2022/01/01 04:46:49;;;;;;;7.18;4.15;;;12.30;99.90;;;;;;5028209;28;20030;-84
2022/01/01 04:49:15;;;;;;;12.20;4.35;;;12.20;99.90;;;;;;5031066;28;20024;-83
2022/01/01 04:51:41;;;;;;;8.13;4.10;;;12.20;99.90;;;;;;5033177;28;20018;-82
2022/01/01 04:54:14;;;;;;;6.88;3.75;;;12.20;99.90;;;;;;5033027;28;20033;-84
2022/01/01 04:56:44;;;;;;;8.13;4.20;;;12.20;99.90;;;;;;5034234;28;20034;-80
2022/01/01 04:59:11;;;;;;;7.63;3.80;;;12.20;99.90;;;;;;5033167;28;20097;-81
2022/01/01 05:01:37;;;;;;;6.57;3.60;;;12.30;99.90;;;;;;5034064;28;20026;-79
2022/01/01 05:04:03;;;;;;;5.95;3.70;;;12.30;99.90;;;;;;5046954;28;20367;-83
2022/01/01 05:06:30;;;;;;;6.28;3.53;;;12.30;99.90;;;;;;5025423;28;20032;-85
2022/01/01 05:08:56;;;;;;;6.03;3.85;;;12.40;99.90;;;;;;5027212;28;20045;-84
2022/01/01 05:11:21;;;;;;;5.47;3.40;;;12.50;99.90;;;;;;5025905;28;20034;-83
2022/01/01 05:13:47;;;;;;;5.22;3.22;;;12.60;99.90;;;;;;5021942;28;20030;-86
2022/01/01 05:16:17;;;;;;;5.03;3.70;;;12.60;99.90;;;;;;5024097;28;20034;-84
2022/01/01 05:18:43;;;;;;;4.18;2.70;;;12.70;99.90;;;;;;5025015;28;20033;-82
2022/01/01 05:21:08;;;;;;;4.60;2.85;;;12.70;99.90;;;;;;5021303;28;20032;-81
2022/01/01 05:23:34;;;;;;;5.80;3.17;;;12.80;99.90;;;;;;5022828;28;20037;-82
2022/01/01 05:26:01;;;;;;;5.20;3.00;;;12.80;99.90;;;;;;5023195;28;20030;-83
2022/01/01 05:28:26;;;;;;;4.03;2.75;;;12.80;99.90;;;;;;5022638;28;20029;-84
2022/01/01 05:30:52;;;;;;;6.43;2.58;;;12.80;99.90;;;;;;5022172;28;20068;-81
2022/01/01 05:33:18;;;;;;;4.75;2.88;;;12.80;99.90;;;;;;5020222;28;20025;-83
2022/01/01 05:35:43;;;;;;;5.53;2.70;;;12.80;99.90;;;;;;5019739;28;20022;-82
2022/01/01 05:38:09;;;;;;;7.05;2.72;;;12.80;99.90;;;;;;5019284;28;20042;-82
2022/01/01 05:40:35;;;;;;;4.63;2.30;;;12.80;99.90;;;;;;5023910;28;20028;-84
2022/01/01 05:43:01;;;;;;;7.32;3.28;;;12.80;99.90;;;;;;5022460;28;20057;-83
2022/01/01 05:45:26;;;;;;;4.75;2.85;;;12.80;99.90;;;;;;5022554;28;20398;-83
2022/01/01 05:47:52;;;;;;;3.97;2.80;;;12.80;99.90;;;;;;5021169;28;20578;-86
2022/01/01 05:50:20;;;;;;;5.53;2.70;;;12.80;99.90;;;;;;5021556;28;20022;-84
2022/01/01 05:52:46;;;;;;;5.57;2.70;;;12.70;99.90;;;;;;5019944;28;20033;-84
2022/01/01 05:55:12;;;;;;;4.38;2.08;;;12.80;99.90;;;;;;5020822;28;20037;-84
2022/01/01 05:57:38;;;;;;;4.05;2.72;;;12.80;99.90;;;;;;5026996;28;20041;-84
2022/01/01 06:00:09;;;;;;;4.10;2.33;;;12.80;99.90;;;;;;5027761;28;20029;-82
2022/01/01 06:02:41;;;;;;;3.28;2.10;;;12.90;99.90;;;;;;5030691;28;20037;-85
2022/01/01 06:05:08;;;;;;;2.47;2.00;;;12.90;99.90;;;;;;5032279;28;20092;-81
2022/01/01 06:07:33;;;;;;;7.07;2.00;;;12.90;99.90;;;;;;5030390;28;20397;-81
2022/01/01 06:09:59;;;;;;;2.97;1.88;;;12.90;99.90;;;;;;5031193;28;20091;-82
2022/01/01 06:12:26;;;;;;;4.22;2.30;;;13.00;99.90;;;;;;5031211;28;20030;-85
2022/01/01 06:14:52;;;;;;;3.67;2.00;;;13.10;99.90;;;;;;5029691;28;20026;-83
2022/01/01 06:17:17;;;;;;;3.13;1.98;;;13.10;99.90;;;;;;5042307;28;20052;-81
2022/01/01 06:19:43;;;;;;;2.58;1.92;;;13.20;99.90;;;;;;5029261;28;20053;-83
2022/01/01 06:22:09;;;;;;;6.38;2.00;;;13.20;99.90;;;;;;5033212;28;20253;-82
2022/01/01 06:24:35;;;;;;;3.55;1.90;;;13.20;99.90;;;;;;5032557;28;20093;-82
2022/01/01 06:27:01;;;;;;;3.35;2.25;;;13.20;99.90;;;;;;5032481;28;20026;-84
2022/01/01 06:29:26;;;;;;;2.38;1.73;;;13.30;99.90;;;;;;5032370;28;20034;-81
2022/01/01 06:31:52;;;;;;;2.88;1.90;;;13.30;99.90;;;;;;5034385;28;20496;-83
2022/01/01 06:34:18;;;;;;;3.45;2.00;;;13.40;99.90;;;;;;5037527;28;20088;-80
2022/01/01 06:36:44;;;;;;;3.47;2.33;;;13.30;99.90;;;;;;5036916;28;20018;-80
2022/01/01 06:39:09;;;;;;;3.75;2.15;;;13.30;99.90;;;;;;5026439;28;20069;-85
2022/01/01 06:41:35;;;;;;;4.90;1.83;;;13.30;99.90;;;;;;5032270;28;20014;-81
2022/01/01 06:44:01;;;;;;;3.42;2.13;;;13.30;99.90;;;;;;5036700;28;20129;-85
2022/01/01 06:46:27;;;;;;;4.10;2.58;;;13.20;99.90;;;;;;5026110;28;20065;-86
2022/01/01 06:48:53;;;;;;;5.53;2.30;;;13.20;99.90;;;;;;5023174;28;20034;-85
2022/01/01 06:51:19;;;;;;;3.88;2.33;;;13.20;99.90;;;;;;5025275;28;20104;-83
2022/01/01 06:53:44;;;;;;;2.90;1.90;;;13.10;99.90;;;;;;5027785;28;20025;-86
2022/01/01 06:56:10;;;;;;;4.53;2.10;;;13.10;99.90;;;;;;5022478;28;20105;-84
2022/01/01 06:58:37;;;;;;;5.18;2.35;;;13.00;99.90;;;;;;5022730;28;20556;-83
2022/01/01 07:01:03;;;;;;;6.20;2.25;;;13.00;99.90;;;;;;5038260;28;20451;-84
2022/01/01 07:03:29;;;;;;;5.72;2.30;;;12.90;99.90;;;;;;5021302;28;20087;-84
2022/01/01 07:05:55;;;;;;;4.93;2.42;;;12.90;99.90;;;;;;5022094;28;20026;-84
2022/01/01 07:08:21;;;;;;;4.50;2.47;;;12.90;99.90;;;;;;5034315;28;20060;-83
2022/01/01 07:10:47;;;;;;;6.70;2.67;;;12.80;99.90;;;;;;5036327;28;20021;-81
2022/01/01 07:13:16;;;;;;;4.05;2.30;;;12.80;99.90;;;;;;5036928;28;20033;-82
2022/01/01 07:15:43;;;;;;;4.20;2.33;;;12.80;99.90;;;;;;5037695;28;20029;-82
2022/01/01 07:18:09;;;;;;;5.57;2.92;;;12.70;99.90;;;;;;5039380;28;20033;-81
2022/01/01 07:20:34;;;;;;;3.72;2.42;;;12.70;99.90;;;;;;5039077;28;20065;-81
2022/01/01 07:23:00;;;;;;;5.72;2.95;;;12.70;99.90;;;;;;5039040;28;20033;-82
2022/01/01 07:25:26;;;;;;;4.28;2.83;;;12.70;99.90;;;;;;5037526;28;20029;-83
2022/01/01 07:27:51;;;;;;;4.90;2.30;;;12.70;99.90;;;;;;5034018;28;20506;-85
2022/01/01 07:30:17;;;;;;;4.93;2.60;;;12.70;99.90;;;;;;5032830;28;20028;-80
2022/01/01 07:32:46;;;;;;;3.50;2.65;;;12.70;99.90;;;;;;5039520;28;20037;-80
2022/01/01 07:35:14;;;;;;;3.83;2.30;;;12.70;99.90;;;;;;5032878;28;20113;-83
2022/01/01 07:37:40;;;;;;;4.47;2.20;;;12.70;99.90;;;;;;5025907;28;20049;-83
2022/01/01 07:40:08;;;;;;;5.30;3.28;;;12.70;99.90;;;;;;5025152;28;20437;-83
2022/01/01 07:42:34;;;;;;;5.13;2.72;;;12.80;99.90;;;;;;5028719;28;20026;-83
2022/01/01 07:45:00;;;;;;;5.50;2.85;;;12.90;99.90;;;;;;5039011;28;20036;-84
2022/01/01 07:47:27;;;;;;;3.65;2.55;;;12.90;99.90;;;;;;5040364;28;20037;-85
2022/01/01 07:49:52;;;;;;;3.75;2.30;;;12.90;99.90;;;;;;5020835;28;20018;-84
2022/01/01 07:52:18;;;;;;;4.03;2.75;;;12.90;99.90;;;;;;5022001;28;20114;-85
2022/01/01 07:54:44;;;;;;;4.72;2.60;;;13.00;99.90;;;;;;5021734;28;20032;-81
2022/01/01 07:57:10;;;;;;;4.45;2.60;;;13.10;99.90;;;;;;5025753;28;20038;-83
2022/01/01 07:59:35;;;;;;;3.45;2.00;;;13.10;99.90;;;;;;5026593;28;20049;-84
2022/01/01 08:02:02;;;;;;;3.00;2.05;;;13.20;99.90;;;;;;5025303;28;20041;-83
2022/01/01 08:04:27;;;;;;;5.80;2.40;;;13.30;99.90;;;;;;5022204;28;20025;-85
2022/01/01 08:06:53;;;;;;;5.68;2.45;;;13.30;99.90;;;;;;5023017;28;20065;-87
2022/01/01 08:09:19;;;;;;;3.05;2.30;;;13.40;99.90;;;;;;5029692;28;20048;-85
2022/01/01 08:11:44;;;;;;;3.28;2.13;;;13.50;99.90;;;;;;5032988;28;20070;-85
2022/01/01 08:14:10;;;;;;;2.90;1.95;;;13.50;99.90;;;;;;5032061;28;20040;-84
2022/01/01 08:17:05;;;;;;;3.58;1.90;;;13.50;99.90;;;;;;5030029;28;20117;-84
2022/01/01 08:19:31;;;;;;;3.55;2.33;;;13.70;99.90;;;;;;5027643;28;20042;-85
2022/01/01 08:21:57;;;;;;;4.45;2.17;;;13.80;99.90;;;;;;5029782;28;20022;-86
2022/01/01 08:24:24;;;;;;;3.97;2.30;;;14.00;99.90;;;;;;5028522;28;20044;-85
2022/01/01 08:26:50;;;;;;;3.50;2.40;;;14.30;99.90;;;;;;5022154;28;20030;-87
2022/01/01 08:29:16;;;;;;;3.67;2.00;;;14.50;99.90;;;;;;5021602;28;20096;-86
2022/01/01 08:31:42;;;;;;;3.55;1.83;;;14.80;99.90;;;;;;5021786;28;20478;-85
2022/01/01 08:34:08;;;;;;;3.75;2.10;;;15.20;99.90;;;;;;5020527;28;20022;-86
2022/01/01 08:36:34;;;;;;;3.25;1.70;;;15.50;99.90;;;;;;5020534;28;20470;-86
2022/01/01 08:39:00;;;;;;;3.35;1.92;;;15.30;99.90;;;;;;5018986;28;20030;-85
2022/01/01 08:41:26;;;;;;;4.05;1.95;;;15.10;99.90;;;;;;5018667;28;20030;-85
2022/01/01 08:43:53;;;;;;;3.50;1.50;;;15.20;99.90;;;;;;5019042;28;20026;-86
2022/01/01 08:48:47;;;;;;;3.42;1.83;;;16.50;99.90;;;;;;5040923;28;20064;-87
2022/01/01 08:51:19;;;;;;;3.25;1.80;;;17.10;99.90;;;;;;5023393;28;20018;-87
2022/01/01 08:53:47;;;;;;;2.97;1.73;;;17.90;99.90;;;;;;5025326;28;20033;-88
2022/01/01 08:56:14;;;;;;;3.63;1.80;;;18.20;99.90;;;;;;5040855;28;20025;-89
2022/01/01 08:58:42;;;;;;;2.42;1.73;;;18.10;99.90;;;;;;5026215;28;20024;-89
2022/01/01 09:01:10;;;;;;;2.90;1.90;;;17.90;99.90;;;;;;5059272;28;20013;-88
2022/01/01 09:03:38;;;;;;;4.30;2.17;;;17.50;99.90;;;;;;5024885;28;20060;-86
2022/01/01 09:06:08;;;;;;;2.75;1.70;;;17.20;99.90;;;;;;5025484;28;20033;-87
2022/01/01 09:08:39;;;;;;;4.18;1.77;;;17.00;99.90;;;;;;5024589;28;20036;-89
2022/01/01 09:11:09;;;;;;;6.43;3.75;;;16.90;99.90;;;;;;5024030;28;20159;-87
2022/01/01 09:13:42;;;;;;;2.67;2.03;;;16.70;99.90;;;;;;5055859;28;20022;-89
2022/01/01 09:16:20;;;;;;;4.80;1.95;;;16.60;99.90;;;;;;5032354;28;20029;-88
2022/01/01 09:18:47;;;;;;;3.40;1.98;;;16.50;99.90;;;;;;5049750;28;20041;-88
2022/01/01 09:21:14;;;;;;;4.57;2.20;;;16.60;99.90;;;;;;5050378;28;20035;-87
2022/01/01 09:23:40;;;;;;;3.15;1.70;;;16.40;99.90;;;;;;5019402;28;20029;-88
2022/01/01 09:26:06;;;;;;;2.58;1.90;;;16.60;99.90;;;;;;5031821;28;20477;-87
2022/01/01 09:28:33;;;;;;;4.25;2.13;;;17.10;99.90;;;;;;5022176;28;20050;-88
2022/01/01 09:31:01;;;;;;;2.92;2.00;;;17.60;99.90;;;;;;5018472;28;20055;-89
2022/01/01 09:33:29;;;;;;;3.08;2.08;;;17.60;99.90;;;;;;5022754;28;20092;-88
2022/01/01 09:35:56;;;;;;;3.25;2.17;;;17.50;99.90;;;;;;5040121;28;20021;-88
2022/01/01 09:38:25;;;;;;;4.68;2.25;;;17.50;99.90;;;;;;5023738;28;20072;-88
2022/01/01 09:40:55;;;;;;;3.83;2.10;;;17.80;99.90;;;;;;5039845;28;20046;-89
2022/01/01 09:43:27;;;;;;;3.00;1.80;;;18.40;99.90;;;;;;5018318;28;20037;-88
2022/01/01 09:45:55;;;;;;;3.22;2.03;;;19.80;99.50;;;;;;5045945;28;20055;-89
2022/01/01 09:48:22;;;;;;;4.05;1.80;;;21.20;97.40;;;;;;5009753;28;20038;-87
2022/01/01 09:50:53;;;;;;;3.17;1.73;;;22.20;95.00;;;;;;5026928;28;20033;-88
2022/01/01 09:53:19;;;;;;;4.20;2.10;;;22.90;93.60;;;;;;5043773;28;20025;-89
2022/01/01 09:55:45;;;;;;;2.95;1.77;;;23.50;91.80;;;;;;5032852;28;20022;-88
2022/01/01 09:58:11;;;;;;;2.38;1.85;;;23.30;91.00;;;;;;5035798;28;20017;-88
2022/01/01 10:00:37;;;;;;;3.45;2.10;;;22.10;91.80;;;;;;5017684;28;20022;-89
2022/01/01 10:03:03;;;;;;;2.47;1.83;;;21.60;92.40;;;;;;5013519;28;20116;-86
2022/01/01 10:05:29;;;;;;;3.08;2.00;;;21.40;92.60;;;;;;5032141;28;20013;-90
2022/01/01 10:08:01;;;;;;;2.60;1.60;;;20.50;93.20;;;;;;5055716;28;20045;-89
2022/01/01 10:10:27;;;;;;;3.67;2.40;;;19.90;94.20;;;;;;5033273;28;20033;-88
2022/01/01 10:12:54;;;;;;;3.22;2.28;;;19.70;94.50;;;;;;5031702;28;20033;-89
2022/01/01 10:15:19;;;;;;;3.42;1.60;;;19.80;94.70;;;;;;5049576;28;20029;-88
2022/01/01 10:17:48;;;;;;;4.85;2.58;;;19.30;95.40;;;;;;5017312;28;20068;-89
2022/01/01 10:20:16;;;;;;;7.90;2.63;;;19.00;96.20;;;;;;5030799;28;20037;-89
2022/01/01 10:22:42;;;;;;;3.33;2.30;;;18.60;97.30;;;;;;5043381;28;20014;-88
2022/01/01 10:28:04;;;;;;;3.83;2.63;;;18.20;98.50;;;;;;5041423;28;20075;-88
2022/01/01 10:30:36;;;;;;;5.80;2.65;;;17.90;99.00;;;;;;5006493;28;20028;-89
2022/01/01 10:33:14;;;;;;;4.80;2.80;;;17.70;99.40;;;;;;5010961;28;20037;-89
2022/01/01 10:35:53;;;;;;;5.68;2.70;;;17.40;99.90;;;;;;5012390;28;20036;-88
2022/01/01 10:38:28;;;;;;;5.03;2.53;;;17.10;99.90;;;;;;5010015;28;20501;-88
2022/01/01 10:41:13;;;;;;;3.67;2.20;;;16.90;99.90;;;;;;5030174;28;20416;-88
2022/01/01 10:43:43;;;;;;;3.22;2.15;;;16.60;99.90;;;;;;5017834;28;20049;-88
2022/01/01 10:46:12;;;;;;;5.35;2.55;;;16.60;99.90;;;;;;5054833;28;20025;-89
2022/01/01 10:48:42;;;;;;;3.88;2.35;;;16.50;99.90;;;;;;5030773;28;20025;-87
2022/01/01 10:51:10;;;;;;;4.00;2.58;;;16.20;99.90;;;;;;5008469;28;20026;-88
2022/01/01 10:53:37;;;;;;;4.20;2.80;;;16.10;99.90;;;;;;5025131;28;20021;-87
2022/01/01 10:56:19;;;;;;;5.22;2.70;;;16.10;99.90;;;;;;5015480;28;20040;-88
2022/01/01 10:58:59;;;;;;;7.82;3.05;;;16.00;99.90;;;;;;5016388;28;20029;-88
2022/01/01 11:01:26;;;;;;;4.97;2.55;;;16.00;99.90;;;;;;5032470;28;20029;-87
2022/01/01 11:03:54;;;;;;;4.45;2.67;;;16.30;99.90;;;;;;5019586;28;20032;-86
2022/01/01 11:06:21;;;;;;;3.65;2.38;;;16.80;99.90;;;;;;5029225;28;20034;-88
2022/01/01 11:08:47;;;;;;;5.70;2.45;;;17.40;99.90;;;;;;5027902;28;20025;-87
2022/01/01 11:11:15;;;;;;;4.93;2.55;;;18.30;99.90;;;;;;5027220;28;20052;-85
2022/01/01 11:13:41;;;;;;;5.70;2.60;;;19.30;99.80;;;;;;5027350;28;20017;-87
2022/01/01 11:16:09;;;;;;;4.53;2.70;;;20.90;97.60;;;;;;5047447;28;20125;-87
2022/01/01 11:18:36;;;;;;;4.32;2.17;;;21.80;95.90;;;;;;5037772;28;20021;-89
2022/01/01 11:21:05;;;;;;;9.63;2.65;;;21.80;95.20;;;;;;5036335;28;20029;-89
2022/01/01 11:23:32;;;;;;;3.72;2.55;;;21.50;95.20;;;;;;5034910;28;20021;-90
2022/01/01 11:25:59;;;;;;;5.07;2.45;;;20.60;96.00;;;;;;5056048;28;20104;-90
2022/01/01 11:28:25;;;;;;;4.25;2.50;;;19.90;96.90;;;;;;5022099;28;20069;-89
2022/01/01 11:31:09;;;;;;;4.78;2.47;;;19.70;97.40;;;;;;5031542;28;20056;-89
2022/01/01 11:33:39;;;;;;;3.92;2.90;;;19.50;97.80;;;;;;5046464;28;20040;-88
2022/01/01 11:36:06;;;;;;;4.20;2.47;;;19.10;98.00;;;;;;5026785;28;20033;-88
2022/01/01 11:38:37;;;;;;;3.95;2.50;;;18.50;98.80;;;;;;5012538;28;20026;-88
2022/01/01 11:41:19;;;;;;;5.07;2.83;;;18.10;99.50;;;;;;5019923;28;20064;-88
2022/01/01 11:43:53;;;;;;;3.33;2.28;;;17.90;99.90;;;;;;5036658;28;20036;-90
2022/01/01 11:46:20;;;;;;;4.63;2.75;;;17.80;99.90;;;;;;5021880;28;20058;-89
2022/01/01 11:49:01;;;;;;;5.43;2.90;;;17.70;99.90;;;;;;5024131;28;20060;-89
2022/01/01 11:51:32;;;;;;;5.13;2.30;;;17.50;99.90;;;;;;5024904;28;20109;-89
2022/01/01 11:54:34;;;;;;;5.25;2.70;;;17.50;99.90;;;;;;5025639;28;20021;-90
2022/01/01 11:57:17;;;;;;;3.75;2.55;;;17.20;99.90;;;;;;5026855;28;20018;-88
2022/01/01 12:00:03;;;;;;;6.57;2.88;;;16.80;99.90;;;;;;5043221;28;20037;-89
2022/01/01 12:02:33;;;;;;;4.82;2.97;;;16.60;99.90;;;;;;5059927;28;20030;-90
2022/01/01 12:05:22;;;;;;;5.25;2.53;;;16.50;99.90;;;;;;5042985;28;20041;-89
2022/01/01 12:08:12;;;;;;;3.90;2.75;;;16.40;99.90;;;;;;5043028;28;20033;-90
2022/01/01 12:10:50;;;;;;;7.25;2.72;;;16.30;99.90;;;;;;5027959;28;20063;-89
2022/01/01 12:13:16;;;;;;;5.25;3.05;;;16.20;99.90;;;;;;5042426;28;20037;-88
2022/01/01 12:15:44;;;;;;;5.60;2.80;;;16.10;99.90;;;;;;5025092;28;20048;-89
2022/01/01 12:18:27;;;;;;;8.02;3.13;;;15.90;99.90;;;;;;5026453;28;20025;-88
2022/01/01 12:21:01;;;;;;;7.93;2.67;;;15.80;99.90;;;;;;5042730;28;20048;-89
2022/01/01 12:23:37;;;;;;;4.70;2.70;;;15.60;99.90;;;;;;5026455;28;20021;-89
2022/01/01 12:26:08;;;;;;;4.15;2.55;;;15.50;99.90;;;;;;5026944;28;20025;-89
2022/01/01 12:28:43;;;;;;;6.68;2.83;;;15.50;99.90;;;;;;5060322;28;20064;-88
2022/01/01 12:31:16;;;;;;;6.85;2.40;;;15.50;99.90;;;;;;5026702;28;20072;-89
2022/01/01 12:33:56;;;;;;;4.28;2.53;;;15.40;99.90;;;;;;5027678;28;20033;-88
2022/01/01 12:36:27;;;;;;;5.50;2.97;;;15.40;99.90;;;;;;5026592;28;20038;-88
2022/01/01 12:38:56;;;;;;;5.30;2.88;;;15.30;99.90;;;;;;5027048;28;20025;-88
2022/01/01 12:41:23;;;;;;;10.18;3.35;;;15.20;99.90;;;;;;5026721;28;20036;-90
2022/01/01 12:43:56;;;;;;;4.32;2.50;;;15.20;99.90;;;;;;5026374;28;20029;-88
2022/01/01 12:46:27;;;;;;;6.90;2.70;;;15.20;99.90;;;;;;5042687;28;20037;-87
2022/01/01 12:49:02;;;;;;;4.53;2.53;;;15.10;99.90;;;;;;5026296;28;20030;-89
2022/01/01 12:51:32;;;;;;;4.88;2.22;;;15.00;99.90;;;;;;5025965;28;20062;-89
2022/01/01 12:54:01;;;;;;;6.40;2.63;;;15.00;99.90;;;;;;5042636;28;20048;-86
2022/01/01 12:56:35;;;;;;;5.35;2.92;;;14.90;99.90;;;;;;5042600;28;20128;-90
2022/01/01 12:59:08;;;;;;;5.85;2.78;;;14.90;99.90;;;;;;5042471;28;20036;-89